Corte Madera, CA

12:54 AM PST on November 28, 2014 (GMT -0800)
Horse Hill | Change Station
CLOSE
Current Station
Personal Weather Station
Location: Mill Valley, CA
Elevation: 20 ft
Nearby Weather Stations

Elev 20 ft 37.91 °N, 122.52 °W | Updated 7 seconds ago

Fog
Fog
38.5 °F
Feels Like 38 °F
N
0.0
Wind Variable Wind from SSW
Gusts 0.0 mph

Today
High -- | Low -- °F
--% Chance of Precip.
Yesterday
High -- | Low -- °F
Precip. -- in
7:04 AM 4:51 PM
Waxing Crescent, 38% visible
Pressure 30.07 in
Visibility 0.2 miles
Clouds Few 700 ft
Windchill 38 °F
Dew Point 36 °F
Humidity 92%
Rainfall 0.00 in
Snow Depth Not available.
UV 0.0 out of 12
Pollen 2.50 out of 12
Air Quality Not available.
Flu Activity Not available.
METAR KOAK 280753Z 02003KT 1/4SM FG FEW007 08/07 A3007 RMK AO2 SLP183 T00830067 401830056 $

More Conditions Fewer Conditions

Pressure 30.07 in
Visibility 0.2 miles
Clouds Few 700 ft
Windchill 38 °F
Dew Point 36 °F
Humidity 92%
Rainfall 0.00 in
Snow Depth Not available.
UV 0.0 out of 12
Pollen 2.50 out of 12
Air Quality Not available.
Flu Activity Not available.
METAR KOAK 280753Z 02003KT 1/4SM FG FEW007 08/07 A3007 RMK AO2 SLP183 T00830067 401830056 $

More Conditions Fewer Conditions

10-Day Weather Forecast

Almanac

Astronomy

Nov. 28, 2014 Rise Set
Actual Time
Civil Twilight
Nautical Twilight
Astronomical Twilight
Moon
Length of Visible Light
Length of Day
Tomorrow will be .
, % of the Moon is Illuminated

Today's Extremes

State Highs State Lows

Community

WunderPhotos

Upload Photos

1,774,190 photos uploaded!

WunderBlogs® & News

Nearby

Air Quality

  Air Quality AQ Index Pollutant
Not available.

Snow Depth

Station Depth Elevation

Earthquake Activity

City Distance Mag. Time & Date
Minimum magnitude displayed is 2.5.

Coastal Water Temperatures

Place Temperature

Nearby Weather Stations